Bobby Golding — WDH2183 — position and weather

sailwx.info

Track history (hours):
 
Tides and Currents Weather Stations Pressure Air Temp Water Temp Dewpoint Dewpoint Depression Visibility Wind Speed Wind Dir Waves Ship Positions

Bobby Golding

Owner: GOLDING BARGE LINE, INC, VICKSBURG, MS. More information available from US FCC via Universal Licensing System and Coast Guard Vessel Documentation Center.

Last reported at 2017-Oct-15 08:10 UTC. Time now 2017-Oct-18 20:25 UTC.
Position N 29°33' W 090°24'.

Length 208 m; draft 2.7 m.

Type: . MMSI: 367595180.

Date/timePositionNaut miles runAvg speedWind from/ knotsBaromVisibWave heightAir tempDewpointWater temp
2017-Oct-15 08:10N 29°33' W 090°24'2 5.3
2017-Oct-15 07:47N 29°33' W 090°26'1 5.4
2017-Oct-15 07:30N 29°33' W 090°28'3 5.4
2017-Oct-15 07:00N 29°34' W 090°31'3 5.2
2017-Oct-15 06:29N 29°34' W 090°34'2 5.0
2017-Oct-15 06:00N 29°35' W 090°37'2 4.0
2017-Oct-15 05:30N 29°36' W 090°39'2 4.8
2017-Oct-15 05:00N 29°37' W 090°41'2 3.4
2017-Oct-15 04:30N 29°35' W 090°43'2 3.7
2017-Oct-15 04:00N 29°34' W 090°44'0 0.5
2017-Oct-15 03:30N 29°34' W 090°44'1 1.1
2017-Oct-15 03:00N 29°34' W 090°45'2 3.4
2017-Oct-15 02:30N 29°32' W 090°46'3 5.6
2017-Oct-15 01:58N 29°32' W 090°49'66 4.5
2017-Oct-14 11:10N 29°49' W 092°03'1 5.4
2017-Oct-14 11:00N 29°48' W 092°04'3 5.8
2017-Oct-14 10:30N 29°47' W 092°07'3 5.4
2017-Oct-14 10:00N 29°47' W 092°10'2 4.7
2017-Oct-14 09:30N 29°47' W 092°13'2 4.9
2017-Oct-14 09:00N 29°48' W 092°15'3 5.0
2017-Oct-14 08:22N 29°50' W 092°18'35 4.9
2017-Oct-14 01:13N 29°56' W 092°58'1 5.3
2017-Oct-14 00:57N 29°56' W 092°60'2 5.2
2017-Oct-14 00:30N 29°56' W 093°03'3 5.2
2017-Oct-13 23:59N 29°56' W 093°06'2 5.2
2017-Oct-13 23:30N 29°56' W 093°08'2 4.7
2017-Oct-13 23:00N 29°57' W 093°11'3 5.2
2017-Oct-13 22:30N 29°59' W 093°13'2 4.8
2017-Oct-13 22:00N 30°01' W 093°14'2 4.6
2017-Oct-13 21:30N 30°03' W 093°16'2 4.9
2017-Oct-13 21:00N 30°05' W 093°17'1 2.1
2017-Oct-13 20:30N 30°06' W 093°18'1 2.3
2017-Oct-13 20:00N 30°06' W 093°19'0 0.2
2017-Oct-13 19:30N 30°06' W 093°20'1 1.4
2017-Oct-13 19:00N 30°05' W 093°20'0 0.0
2017-Oct-13 18:30N 30°05' W 093°20'0 0.0
2017-Oct-13 18:00N 30°05' W 093°20'0 0.0
2017-Oct-13 17:30N 30°05' W 093°20'0 0.0
2017-Oct-13 17:00N 30°05' W 093°20'0 0.0
2017-Oct-13 16:30N 30°05' W 093°20'0 0.0
2017-Oct-13 16:00N 30°05' W 093°20'1 1.5
2017-Oct-13 15:30N 30°06' W 093°20'3 5.8
2017-Oct-13 15:00N 30°08' W 093°20'3 6.3
2017-Oct-13 14:30N 30°11' W 093°18'3 5.5
2017-Oct-13 14:00N 30°13' W 093°16'0 0.9
2017-Oct-13 13:30N 30°13' W 093°16'0 0.1
2017-Oct-13 13:00N 30°13' W 093°16'0 0.0
2017-Oct-13 12:30N 30°13' W 093°16'0 0.0
2017-Oct-13 12:00N 30°13' W 093°16'0 0.0
2017-Oct-13 11:30N 30°13' W 093°16'0 0.0
2017-Oct-13 11:00N 30°13' W 093°16'0 0.0
2017-Oct-13 10:30N 30°13' W 093°16'0 0.0
2017-Oct-13 10:00N 30°13' W 093°16'0 0.0
2017-Oct-13 09:30N 30°13' W 093°16'0 0.0
2017-Oct-13 09:00N 30°13' W 093°16'0 0.0
2017-Oct-13 08:30N 30°13' W 093°16'0 0.0
2017-Oct-13 08:00N 30°13' W 093°16'0 0.0
2017-Oct-13 07:30N 30°13' W 093°16'0 0.0
2017-Oct-13 07:00N 30°13' W 093°16'0 0.0
2017-Oct-13 06:30N 30°13' W 093°16'0 0.0
2017-Oct-13 06:00N 30°13' W 093°16'0 0.0
2017-Oct-13 05:30N 30°13' W 093°16'0 0.0
2017-Oct-13 05:00N 30°13' W 093°16'0 0.0
2017-Oct-13 04:30N 30°13' W 093°16'0 0.0
2017-Oct-13 04:00N 30°13' W 093°16'0 0.0
2017-Oct-13 03:30N 30°13' W 093°16'0 0.0
2017-Oct-13 03:00N 30°13' W 093°16'0 0.0
2017-Oct-13 02:30N 30°13' W 093°16'0 0.0
2017-Oct-13 02:00N 30°13' W 093°16'0 0.0
2017-Oct-13 01:30N 30°13' W 093°16'0 0.0
2017-Oct-13 01:00N 30°13' W 093°16'0 0.0
2017-Oct-13 00:30N 30°13' W 093°16'0 0.0
2017-Oct-13 00:00N 30°13' W 093°16'0 0.0
2017-Oct-12 23:30N 30°13' W 093°16'0 0.0
2017-Oct-12 23:00N 30°13' W 093°16'0 0.0
2017-Oct-12 22:30N 30°13' W 093°16'0 0.0
2017-Oct-12 22:00N 30°13' W 093°16'0 0.0
2017-Oct-12 21:30N 30°13' W 093°16'0 0.0
2017-Oct-12 21:00N 30°13' W 093°16'0 0.0
2017-Oct-12 20:30N 30°13' W 093°16'0 0.0
2017-Oct-12 20:00N 30°13' W 093°16'0 0.0
2017-Oct-12 19:30N 30°13' W 093°16'0 0.0
2017-Oct-12 19:00N 30°13' W 093°16'0 0.0
2017-Oct-12 18:30N 30°13' W 093°16'0 0.0
2017-Oct-12 18:00N 30°13' W 093°16'0 0.0
2017-Oct-12 17:30N 30°13' W 093°16'0 0.0
2017-Oct-12 17:00N 30°13' W 093°16'0 0.0
2017-Oct-12 16:30N 30°13' W 093°16'0 0.0
2017-Oct-12 16:00N 30°13' W 093°16'0 0.0
2017-Oct-12 15:30N 30°13' W 093°16'0 0.0
2017-Oct-12 15:00N 30°13' W 093°16'0 0.0
2017-Oct-12 14:30N 30°13' W 093°16'0 0.0
2017-Oct-12 14:00N 30°13' W 093°16'0 0.0
2017-Oct-12 13:30N 30°13' W 093°16'0 0.0
2017-Oct-12 13:00N 30°13' W 093°16'0 0.0
2017-Oct-12 12:30N 30°13' W 093°16'0 0.0
2017-Oct-12 12:00N 30°13' W 093°16'0 0.0
2017-Oct-12 11:30N 30°13' W 093°16'0 0.0
2017-Oct-12 11:00N 30°13' W 093°16'0 0.0
2017-Oct-12 10:30N 30°13' W 093°16'0 0.0
2017-Oct-12 10:00N 30°13' W 093°16'0 0.0
2017-Oct-12 09:30N 30°13' W 093°16'0 0.0
2017-Oct-12 09:00N 30°13' W 093°16'0 0.0
2017-Oct-12 08:30N 30°13' W 093°16'0 0.0
2017-Oct-12 08:00N 30°13' W 093°16'0 0.0
2017-Oct-12 07:30N 30°13' W 093°16'0 0.0
2017-Oct-12 07:00N 30°13' W 093°16'0 0.0
2017-Oct-12 06:30N 30°13' W 093°16'0 0.0
2017-Oct-12 06:00N 30°13' W 093°16'0 0.0
2017-Oct-12 05:30N 30°13' W 093°16'0 0.0
2017-Oct-12 05:00N 30°13' W 093°16'0 0.0
2017-Oct-12 04:30N 30°13' W 093°16'0 0.0
2017-Oct-12 04:00N 30°13' W 093°16'0 0.0
2017-Oct-12 03:30N 30°13' W 093°16'0 0.0
2017-Oct-12 03:00N 30°13' W 093°16'0 0.0
2017-Oct-12 02:30N 30°13' W 093°16'0 0.0
2017-Oct-12 02:00N 30°13' W 093°16'0 0.0
2017-Oct-12 01:30N 30°13' W 093°16'0 0.0
2017-Oct-12 01:00N 30°13' W 093°16'0 0.0
2017-Oct-12 00:30N 30°13' W 093°16'0 0.0
2017-Oct-12 00:00N 30°13' W 093°16'0 0.0
2017-Oct-11 23:30N 30°13' W 093°16'0 0.0
2017-Oct-11 23:00N 30°13' W 093°16'0 0.0
2017-Oct-11 22:30N 30°13' W 093°16'0 0.0
2017-Oct-11 22:00N 30°13' W 093°16'0 0.0
2017-Oct-11 21:30N 30°13' W 093°16'0 0.0
2017-Oct-11 21:00N 30°13' W 093°16'0 0.0
2017-Oct-11 20:30N 30°13' W 093°16'0 0.0
2017-Oct-11 20:00N 30°13' W 093°16'0 0.0
2017-Oct-11 19:30N 30°13' W 093°16'0 0.0
2017-Oct-11 19:00N 30°13' W 093°16'0 0.0
2017-Oct-11 18:30N 30°13' W 093°16'0 0.0
2017-Oct-11 18:00N 30°13' W 093°16'0 0.0
2017-Oct-11 17:30N 30°13' W 093°16'0 0.0
2017-Oct-11 17:00N 30°13' W 093°16'0 0.0
2017-Oct-11 00:00N 30°13' W 093°16'0 0.0
2017-Oct-10 23:30N 30°13' W 093°16'0 0.0
2017-Oct-10 23:00N 30°13' W 093°16'0 0.0
2017-Oct-10 22:30N 30°13' W 093°16'0 0.0
2017-Oct-10 22:00N 30°13' W 093°16'0 0.0
2017-Oct-10 21:30N 30°13' W 093°16'0 0.0
2017-Oct-10 21:00N 30°13' W 093°16'0 0.0
2017-Oct-10 20:30N 30°13' W 093°16'0 0.0
2017-Oct-10 20:00N 30°13' W 093°16'0 0.0
2017-Oct-10 19:30N 30°13' W 093°16'0 0.0
2017-Oct-10 19:00N 30°13' W 093°16'0 0.0
2017-Oct-10 18:30N 30°13' W 093°16'0 0.0
2017-Oct-10 18:00N 30°13' W 093°16'0 0.0
2017-Oct-10 17:30N 30°13' W 093°16'0 0.0
2017-Oct-10 17:00N 30°13' W 093°16'0 0.0
2017-Oct-10 16:30N 30°13' W 093°16'0 0.0
2017-Oct-10 16:00N 30°13' W 093°16'0 0.0
2017-Oct-10 15:30N 30°13' W 093°16'0 0.0
2017-Oct-10 15:00N 30°13' W 093°16'0 0.0
2017-Oct-10 14:00N 30°13' W 093°16'0 0.0
2017-Oct-10 13:30N 30°13' W 093°16'0 0.0
2017-Oct-10 13:00N 30°13' W 093°16'0 0.0
2017-Oct-10 12:30N 30°13' W 093°16'0 0.0
2017-Oct-10 12:00N 30°13' W 093°16'0 0.0
2017-Oct-10 11:30N 30°13' W 093°16'0 0.0
2017-Oct-10 11:00N 30°13' W 093°16'0 0.0
2017-Oct-10 10:30N 30°13' W 093°16'0 0.0
2017-Oct-10 10:00N 30°13' W 093°16'0 0.0
2017-Oct-10 09:30N 30°13' W 093°16'0 0.0
2017-Oct-10 09:00N 30°13' W 093°16'0 0.0
2017-Oct-10 08:30N 30°13' W 093°16'0 0.0
2017-Oct-10 08:00N 30°13' W 093°16'0 0.0
2017-Oct-10 07:30N 30°13' W 093°16'0 0.0
2017-Oct-10 07:00N 30°13' W 093°16'0 0.0
2017-Oct-10 06:30N 30°13' W 093°16'0 0.0
2017-Oct-10 06:00N 30°13' W 093°16'0 0.0
2017-Oct-10 05:30N 30°13' W 093°16'0 0.0
2017-Oct-10 05:00N 30°13' W 093°16'0 0.0
2017-Oct-10 04:30N 30°13' W 093°16'0 0.0
2017-Oct-10 04:00N 30°13' W 093°16'0 0.0
2017-Oct-10 03:30N 30°13' W 093°16'0 0.0
2017-Oct-10 03:00N 30°13' W 093°16'0 0.0
2017-Oct-10 02:30N 30°13' W 093°16'0 0.0
2017-Oct-10 02:00N 30°13' W 093°16'0 0.0
2017-Oct-10 01:30N 30°13' W 093°16'0 0.0
2017-Oct-10 01:00N 30°13' W 093°16'0 0.0
2017-Oct-10 00:30N 30°13' W 093°16'0 0.0
2017-Oct-10 00:00N 30°13' W 093°16'0 0.0
2017-Oct-09 23:30N 30°13' W 093°16'0 0.0
2017-Oct-09 23:00N 30°13' W 093°16'0 0.0
2017-Oct-09 22:30N 30°13' W 093°16'0 0.0
2017-Oct-09 22:00N 30°13' W 093°16'0 0.0
2017-Oct-09 21:30N 30°13' W 093°16'0 0.0
2017-Oct-09 21:00N 30°13' W 093°16'0 0.0
2017-Oct-09 20:30N 30°13' W 093°16'0 0.0
2017-Oct-09 20:00N 30°13' W 093°16'0 0.0
2017-Oct-09 19:30N 30°13' W 093°16'0 0.0
2017-Oct-09 19:00N 30°13' W 093°16'0 0.0
2017-Oct-09 18:30N 30°13' W 093°16'0 0.0
2017-Oct-09 18:00N 30°13' W 093°16'0 0.0
2017-Oct-09 17:30N 30°13' W 093°16'0 0.0
2017-Oct-09 17:00N 30°13' W 093°16'0 0.0
2017-Oct-09 16:30N 30°13' W 093°16'0 0.0
2017-Oct-09 16:00N 30°13' W 093°16'0 0.0
2017-Oct-09 15:30N 30°13' W 093°16'0 0.0
2017-Oct-09 15:00N 30°13' W 093°16'0 0.0
2017-Oct-09 14:30N 30°13' W 093°16'0 0.0
2017-Oct-09 14:00N 30°13' W 093°16'0 0.0
2017-Oct-09 13:30N 30°13' W 093°16'0 0.0
2017-Oct-09 13:00N 30°13' W 093°16'0 0.0
2017-Oct-09 12:30N 30°13' W 093°16'0 0.0
2017-Oct-09 12:00N 30°13' W 093°16'0 0.0
2017-Oct-09 11:30N 30°13' W 093°16'0 0.0
2017-Oct-09 11:00N 30°13' W 093°16'0 0.0
2017-Oct-09 10:30N 30°13' W 093°16'0 0.0
2017-Oct-09 10:00N 30°13' W 093°16'0 0.0
2017-Oct-09 09:30N 30°13' W 093°16'0 0.0
2017-Oct-09 09:00N 30°13' W 093°16'0 0.0
2017-Oct-09 08:30N 30°13' W 093°16'0 0.0
2017-Oct-09 08:00N 30°13' W 093°16'0 0.0
2017-Oct-09 07:30N 30°13' W 093°16'0 0.0
2017-Oct-09 07:00N 30°13' W 093°16'0 0.0
2017-Oct-09 06:30N 30°13' W 093°16'0 0.0
2017-Oct-09 06:00N 30°13' W 093°16'0 0.0
2017-Oct-09 05:30N 30°13' W 093°16'0 0.0
2017-Oct-09 05:00N 30°13' W 093°16'0 0.0
2017-Oct-09 04:30N 30°13' W 093°16'0 0.0
2017-Oct-09 04:00N 30°13' W 093°16'0 0.0
2017-Oct-09 03:30N 30°13' W 093°16'0 0.0
2017-Oct-09 03:00N 30°13' W 093°16'0 0.0
2017-Oct-09 02:30N 30°13' W 093°16'0 0.0
2017-Oct-09 02:00N 30°13' W 093°16'0 0.0
2017-Oct-09 01:30N 30°13' W 093°16'0 0.0
2017-Oct-09 01:00N 30°13' W 093°16'0 0.0
2017-Oct-09 00:30N 30°13' W 093°16'0 0.0
2017-Oct-09 00:00N 30°13' W 093°16'0 0.0
2017-Oct-08 23:30N 30°13' W 093°16'0 0.0
2017-Oct-08 23:00N 30°13' W 093°16'0 0.0
2017-Oct-08 22:30N 30°13' W 093°16'0 0.0
2017-Oct-08 22:00N 30°13' W 093°16'0 0.0
2017-Oct-08 21:30N 30°13' W 093°16'0 0.0
2017-Oct-08 21:00N 30°13' W 093°16'0 0.0
2017-Oct-08 20:30N 30°13' W 093°16'0 0.0
2017-Oct-08 20:00N 30°13' W 093°16'0 0.0
2017-Oct-08 19:30N 30°13' W 093°16'0 0.0
2017-Oct-08 19:00N 30°13' W 093°16'0 0.0
2017-Oct-08 18:30N 30°13' W 093°16'0 0.0
2017-Oct-08 18:00N 30°13' W 093°16'0 0.0
2017-Oct-08 17:30N 30°13' W 093°16'0 0.0
2017-Oct-08 17:00N 30°13' W 093°16'0 0.0
2017-Oct-08 16:30N 30°13' W 093°16'0 0.0
2017-Oct-08 16:00N 30°13' W 093°16'0 0.0
2017-Oct-08 15:30N 30°13' W 093°16'0 0.0
2017-Oct-08 15:00N 30°13' W 093°16'0 0.0
2017-Oct-08 14:30N 30°13' W 093°16'0 0.0
2017-Oct-08 14:00N 30°13' W 093°16'0 0.0
2017-Oct-08 13:30N 30°13' W 093°16'0 0.0
2017-Oct-08 13:00N 30°13' W 093°16'0 0.0
2017-Oct-08 12:30N 30°13' W 093°16'0 0.0
2017-Oct-08 12:00N 30°13' W 093°16'0 0.0
2017-Oct-08 11:30N 30°13' W 093°16'0 0.0
2017-Oct-08 11:00N 30°13' W 093°16'0 0.1
2017-Oct-08 10:30N 30°13' W 093°16'0 0.4
2017-Oct-08 10:00N 30°14' W 093°16'0 0.0
2017-Oct-08 09:30N 30°14' W 093°16'0 0.0
2017-Oct-08 09:00N 30°14' W 093°16'0 0.0
2017-Oct-08 08:30N 30°14' W 093°16'0 0.0
2017-Oct-08 08:00N 30°14' W 093°16'0 0.0
2017-Oct-08 07:30N 30°14' W 093°16'0 0.0
2017-Oct-08 07:00N 30°14' W 093°16'0 0.0
2017-Oct-08 06:30N 30°14' W 093°16'0 0.3
2017-Oct-08 06:00N 30°13' W 093°16'0 0.8
2017-Oct-08 05:30N 30°13' W 093°16'1 2.0
2017-Oct-08 05:00N 30°12' W 093°17'3 6.0
2017-Oct-08 04:30N 30°10' W 093°19'3 5.6
2017-Oct-08 04:00N 30°07' W 093°20'3 5.2
2017-Oct-08 03:30N 30°05' W 093°20'2 3.9
2017-Oct-08 03:00N 30°04' W 093°22'2 4.7
2017-Oct-08 02:30N 30°04' W 093°25'3 5.2
2017-Oct-08 02:00N 30°04' W 093°28'3 5.1
2017-Oct-08 01:30N 30°04' W 093°31'3 5.2
2017-Oct-08 01:00N 30°04' W 093°34'3 5.3
2017-Oct-08 00:30N 30°04' W 093°37'3 5.6
2017-Oct-07 23:59N 30°04' W 093°40'71 4.9
2017-Oct-07 09:30N 29°31' W 094°53'4 7.6
2017-Oct-07 09:00N 29°34' W 094°55'4 7.7
2017-Oct-07 08:30N 29°37' W 094°57'4 7.8
2017-Oct-07 08:00N 29°41' W 094°59'3 7.0
2017-Oct-07 07:30N 29°43' W 095°01'4 0.2
2017-Oct-06 13:29N 29°45' W 095°06'0 0.0
2017-Oct-06 11:11N 29°45' W 095°06'0 0.0
2017-Oct-06 10:58N 29°45' W 095°06'0 0.0
2017-Oct-06 10:30N 29°45' W 095°06'0 0.0
2017-Oct-06 10:00N 29°45' W 095°06'0 0.0
2017-Oct-06 09:30N 29°45' W 095°06'  
Track history (hours):
 
Tides and Currents Weather Stations Pressure Air Temp Water Temp Dewpoint Dewpoint Depression Visibility Wind Speed Wind Dir Waves Ship Positions

Bobby Golding

Owner: GOLDING BARGE LINE, INC, VICKSBURG, MS. More information available from US FCC via Universal Licensing System and Coast Guard Vessel Documentation Center.

Last reported at 2017-Oct-15 08:10 UTC. Time now 2017-Oct-18 20:25 UTC.
Position N 29°33' W 090°24'.

Length 208 m; draft 2.7 m.

Type: . MMSI: 367595180.

Date/timePositionNaut miles runAvg speedWind from/ knotsBaromVisibWave heightAir tempDewpointWater temp
2017-Oct-15 08:10N 29°33' W 090°24'2 5.3
2017-Oct-15 07:47N 29°33' W 090°26'1 5.4
2017-Oct-15 07:30N 29°33' W 090°28'3 5.4
2017-Oct-15 07:00N 29°34' W 090°31'3 5.2
2017-Oct-15 06:29N 29°34' W 090°34'2 5.0
2017-Oct-15 06:00N 29°35' W 090°37'2 4.0
2017-Oct-15 05:30N 29°36' W 090°39'2 4.8
2017-Oct-15 05:00N 29°37' W 090°41'2 3.4
2017-Oct-15 04:30N 29°35' W 090°43'2 3.7
2017-Oct-15 04:00N 29°34' W 090°44'0 0.5
2017-Oct-15 03:30N 29°34' W 090°44'1 1.1
2017-Oct-15 03:00N 29°34' W 090°45'2 3.4
2017-Oct-15 02:30N 29°32' W 090°46'3 5.6
2017-Oct-15 01:58N 29°32' W 090°49'66 4.5
2017-Oct-14 11:10N 29°49' W 092°03'1 5.4
2017-Oct-14 11:00N 29°48' W 092°04'3 5.8
2017-Oct-14 10:30N 29°47' W 092°07'3 5.4
2017-Oct-14 10:00N 29°47' W 092°10'2 4.7
2017-Oct-14 09:30N 29°47' W 092°13'2 4.9
2017-Oct-14 09:00N 29°48' W 092°15'3 5.0
2017-Oct-14 08:22N 29°50' W 092°18'35 4.9
2017-Oct-14 01:13N 29°56' W 092°58'1 5.3
2017-Oct-14 00:57N 29°56' W 092°60'2 5.2
2017-Oct-14 00:30N 29°56' W 093°03'3 5.2
2017-Oct-13 23:59N 29°56' W 093°06'2 5.2
2017-Oct-13 23:30N 29°56' W 093°08'2 4.7
2017-Oct-13 23:00N 29°57' W 093°11'3 5.2
2017-Oct-13 22:30N 29°59' W 093°13'2 4.8
2017-Oct-13 22:00N 30°01' W 093°14'2 4.6
2017-Oct-13 21:30N 30°03' W 093°16'2 4.9
2017-Oct-13 21:00N 30°05' W 093°17'1 2.1
2017-Oct-13 20:30N 30°06' W 093°18'1 2.3
2017-Oct-13 20:00N 30°06' W 093°19'0 0.2
2017-Oct-13 19:30N 30°06' W 093°20'1 1.4
2017-Oct-13 19:00N 30°05' W 093°20'0 0.0
2017-Oct-13 18:30N 30°05' W 093°20'0 0.0
2017-Oct-13 18:00N 30°05' W 093°20'0 0.0
2017-Oct-13 17:30N 30°05' W 093°20'0 0.0
2017-Oct-13 17:00N 30°05' W 093°20'0 0.0
2017-Oct-13 16:30N 30°05' W 093°20'0 0.0
2017-Oct-13 16:00N 30°05' W 093°20'1 1.5
2017-Oct-13 15:30N 30°06' W 093°20'3 5.8
2017-Oct-13 15:00N 30°08' W 093°20'3 6.3
2017-Oct-13 14:30N 30°11' W 093°18'3 5.5
2017-Oct-13 14:00N 30°13' W 093°16'0 0.9
2017-Oct-13 13:30N 30°13' W 093°16'0 0.1
2017-Oct-13 13:00N 30°13' W 093°16'0 0.0
2017-Oct-13 12:30N 30°13' W 093°16'0 0.0
2017-Oct-13 12:00N 30°13' W 093°16'0 0.0
2017-Oct-13 11:30N 30°13' W 093°16'0 0.0
2017-Oct-13 11:00N 30°13' W 093°16'0 0.0
2017-Oct-13 10:30N 30°13' W 093°16'0 0.0
2017-Oct-13 10:00N 30°13' W 093°16'0 0.0
2017-Oct-13 09:30N 30°13' W 093°16'0 0.0
2017-Oct-13 09:00N 30°13' W 093°16'0 0.0
2017-Oct-13 08:30N 30°13' W 093°16'0 0.0
2017-Oct-13 08:00N 30°13' W 093°16'0 0.0
2017-Oct-13 07:30N 30°13' W 093°16'0 0.0
2017-Oct-13 07:00N 30°13' W 093°16'0 0.0
2017-Oct-13 06:30N 30°13' W 093°16'0 0.0
2017-Oct-13 06:00N 30°13' W 093°16'0 0.0
2017-Oct-13 05:30N 30°13' W 093°16'0 0.0
2017-Oct-13 05:00N 30°13' W 093°16'0 0.0
2017-Oct-13 04:30N 30°13' W 093°16'0 0.0
2017-Oct-13 04:00N 30°13' W 093°16'0 0.0
2017-Oct-13 03:30N 30°13' W 093°16'0 0.0
2017-Oct-13 03:00N 30°13' W 093°16'0 0.0
2017-Oct-13 02:30N 30°13' W 093°16'0 0.0
2017-Oct-13 02:00N 30°13' W 093°16'0 0.0
2017-Oct-13 01:30N 30°13' W 093°16'0 0.0
2017-Oct-13 01:00N 30°13' W 093°16'0 0.0
2017-Oct-13 00:30N 30°13' W 093°16'0 0.0
2017-Oct-13 00:00N 30°13' W 093°16'0 0.0
2017-Oct-12 23:30N 30°13' W 093°16'0 0.0
2017-Oct-12 23:00N 30°13' W 093°16'0 0.0
2017-Oct-12 22:30N 30°13' W 093°16'0 0.0
2017-Oct-12 22:00N 30°13' W 093°16'0 0.0
2017-Oct-12 21:30N 30°13' W 093°16'0 0.0
2017-Oct-12 21:00N 30°13' W 093°16'0 0.0
2017-Oct-12 20:30N 30°13' W 093°16'0 0.0
2017-Oct-12 20:00N 30°13' W 093°16'0 0.0
2017-Oct-12 19:30N 30°13' W 093°16'0 0.0
2017-Oct-12 19:00N 30°13' W 093°16'0 0.0
2017-Oct-12 18:30N 30°13' W 093°16'0 0.0
2017-Oct-12 18:00N 30°13' W 093°16'0 0.0
2017-Oct-12 17:30N 30°13' W 093°16'0 0.0
2017-Oct-12 17:00N 30°13' W 093°16'0 0.0
2017-Oct-12 16:30N 30°13' W 093°16'0 0.0
2017-Oct-12 16:00N 30°13' W 093°16'0 0.0
2017-Oct-12 15:30N 30°13' W 093°16'0 0.0
2017-Oct-12 15:00N 30°13' W 093°16'0 0.0
2017-Oct-12 14:30N 30°13' W 093°16'0 0.0
2017-Oct-12 14:00N 30°13' W 093°16'0 0.0
2017-Oct-12 13:30N 30°13' W 093°16'0 0.0
2017-Oct-12 13:00N 30°13' W 093°16'0 0.0
2017-Oct-12 12:30N 30°13' W 093°16'0 0.0
2017-Oct-12 12:00N 30°13' W 093°16'0 0.0
2017-Oct-12 11:30N 30°13' W 093°16'0 0.0
2017-Oct-12 11:00N 30°13' W 093°16'0 0.0
2017-Oct-12 10:30N 30°13' W 093°16'0 0.0
2017-Oct-12 10:00N 30°13' W 093°16'0 0.0
2017-Oct-12 09:30N 30°13' W 093°16'0 0.0
2017-Oct-12 09:00N 30°13' W 093°16'0 0.0
2017-Oct-12 08:30N 30°13' W 093°16'0 0.0
2017-Oct-12 08:00N 30°13' W 093°16'0 0.0
2017-Oct-12 07:30N 30°13' W 093°16'0 0.0
2017-Oct-12 07:00N 30°13' W 093°16'0 0.0
2017-Oct-12 06:30N 30°13' W 093°16'0 0.0
2017-Oct-12 06:00N 30°13' W 093°16'0 0.0
2017-Oct-12 05:30N 30°13' W 093°16'0 0.0
2017-Oct-12 05:00N 30°13' W 093°16'0 0.0
2017-Oct-12 04:30N 30°13' W 093°16'0 0.0
2017-Oct-12 04:00N 30°13' W 093°16'0 0.0
2017-Oct-12 03:30N 30°13' W 093°16'0 0.0
2017-Oct-12 03:00N 30°13' W 093°16'0 0.0
2017-Oct-12 02:30N 30°13' W 093°16'0 0.0
2017-Oct-12 02:00N 30°13' W 093°16'0 0.0
2017-Oct-12 01:30N 30°13' W 093°16'0 0.0
2017-Oct-12 01:00N 30°13' W 093°16'0 0.0
2017-Oct-12 00:30N 30°13' W 093°16'0 0.0
2017-Oct-12 00:00N 30°13' W 093°16'0 0.0
2017-Oct-11 23:30N 30°13' W 093°16'0 0.0
2017-Oct-11 23:00N 30°13' W 093°16'0 0.0
2017-Oct-11 22:30N 30°13' W 093°16'0 0.0
2017-Oct-11 22:00N 30°13' W 093°16'0 0.0
2017-Oct-11 21:30N 30°13' W 093°16'0 0.0
2017-Oct-11 21:00N 30°13' W 093°16'0 0.0
2017-Oct-11 20:30N 30°13' W 093°16'0 0.0
2017-Oct-11 20:00N 30°13' W 093°16'0 0.0
2017-Oct-11 19:30N 30°13' W 093°16'0 0.0
2017-Oct-11 19:00N 30°13' W 093°16'0 0.0
2017-Oct-11 18:30N 30°13' W 093°16'0 0.0
2017-Oct-11 18:00N 30°13' W 093°16'0 0.0
2017-Oct-11 17:30N 30°13' W 093°16'0 0.0
2017-Oct-11 17:00N 30°13' W 093°16'0 0.0
2017-Oct-11 00:00N 30°13' W 093°16'0 0.0
2017-Oct-10 23:30N 30°13' W 093°16'0 0.0
2017-Oct-10 23:00N 30°13' W 093°16'0 0.0
2017-Oct-10 22:30N 30°13' W 093°16'0 0.0
2017-Oct-10 22:00N 30°13' W 093°16'0 0.0
2017-Oct-10 21:30N 30°13' W 093°16'0 0.0
2017-Oct-10 21:00N 30°13' W 093°16'0 0.0
2017-Oct-10 20:30N 30°13' W 093°16'0 0.0
2017-Oct-10 20:00N 30°13' W 093°16'0 0.0
2017-Oct-10 19:30N 30°13' W 093°16'0 0.0
2017-Oct-10 19:00N 30°13' W 093°16'0 0.0
2017-Oct-10 18:30N 30°13' W 093°16'0 0.0
2017-Oct-10 18:00N 30°13' W 093°16'0 0.0
2017-Oct-10 17:30N 30°13' W 093°16'0 0.0
2017-Oct-10 17:00N 30°13' W 093°16'0 0.0
2017-Oct-10 16:30N 30°13' W 093°16'0 0.0
2017-Oct-10 16:00N 30°13' W 093°16'0 0.0
2017-Oct-10 15:30N 30°13' W 093°16'0 0.0
2017-Oct-10 15:00N 30°13' W 093°16'0 0.0
2017-Oct-10 14:00N 30°13' W 093°16'0 0.0
2017-Oct-10 13:30N 30°13' W 093°16'0 0.0
2017-Oct-10 13:00N 30°13' W 093°16'0 0.0
2017-Oct-10 12:30N 30°13' W 093°16'0 0.0
2017-Oct-10 12:00N 30°13' W 093°16'0 0.0
2017-Oct-10 11:30N 30°13' W 093°16'0 0.0
2017-Oct-10 11:00N 30°13' W 093°16'0 0.0
2017-Oct-10 10:30N 30°13' W 093°16'0 0.0
2017-Oct-10 10:00N 30°13' W 093°16'0 0.0
2017-Oct-10 09:30N 30°13' W 093°16'0 0.0
2017-Oct-10 09:00N 30°13' W 093°16'0 0.0
2017-Oct-10 08:30N 30°13' W 093°16'0 0.0
2017-Oct-10 08:00N 30°13' W 093°16'0 0.0
2017-Oct-10 07:30N 30°13' W 093°16'0 0.0
2017-Oct-10 07:00N 30°13' W 093°16'0 0.0
2017-Oct-10 06:30N 30°13' W 093°16'0 0.0
2017-Oct-10 06:00N 30°13' W 093°16'0 0.0
2017-Oct-10 05:30N 30°13' W 093°16'0 0.0
2017-Oct-10 05:00N 30°13' W 093°16'0 0.0
2017-Oct-10 04:30N 30°13' W 093°16'0 0.0
2017-Oct-10 04:00N 30°13' W 093°16'0 0.0
2017-Oct-10 03:30N 30°13' W 093°16'0 0.0
2017-Oct-10 03:00N 30°13' W 093°16'0 0.0
2017-Oct-10 02:30N 30°13' W 093°16'0 0.0
2017-Oct-10 02:00N 30°13' W 093°16'0 0.0
2017-Oct-10 01:30N 30°13' W 093°16'0 0.0
2017-Oct-10 01:00N 30°13' W 093°16'0 0.0
2017-Oct-10 00:30N 30°13' W 093°16'0 0.0
2017-Oct-10 00:00N 30°13' W 093°16'0 0.0
2017-Oct-09 23:30N 30°13' W 093°16'0 0.0
2017-Oct-09 23:00N 30°13' W 093°16'0 0.0
2017-Oct-09 22:30N 30°13' W 093°16'0 0.0
2017-Oct-09 22:00N 30°13' W 093°16'0 0.0
2017-Oct-09 21:30N 30°13' W 093°16'0 0.0
2017-Oct-09 21:00N 30°13' W 093°16'0 0.0
2017-Oct-09 20:30N 30°13' W 093°16'0 0.0
2017-Oct-09 20:00N 30°13' W 093°16'0 0.0
2017-Oct-09 19:30N 30°13' W 093°16'0 0.0
2017-Oct-09 19:00N 30°13' W 093°16'0 0.0
2017-Oct-09 18:30N 30°13' W 093°16'0 0.0
2017-Oct-09 18:00N 30°13' W 093°16'0 0.0
2017-Oct-09 17:30N 30°13' W 093°16'0 0.0
2017-Oct-09 17:00N 30°13' W 093°16'0 0.0
2017-Oct-09 16:30N 30°13' W 093°16'0 0.0
2017-Oct-09 16:00N 30°13' W 093°16'0 0.0
2017-Oct-09 15:30N 30°13' W 093°16'0 0.0
2017-Oct-09 15:00N 30°13' W 093°16'0 0.0
2017-Oct-09 14:30N 30°13' W 093°16'0 0.0
2017-Oct-09 14:00N 30°13' W 093°16'0 0.0
2017-Oct-09 13:30N 30°13' W 093°16'0 0.0
2017-Oct-09 13:00N 30°13' W 093°16'0 0.0
2017-Oct-09 12:30N 30°13' W 093°16'0 0.0
2017-Oct-09 12:00N 30°13' W 093°16'0 0.0
2017-Oct-09 11:30N 30°13' W 093°16'0 0.0
2017-Oct-09 11:00N 30°13' W 093°16'0 0.0
2017-Oct-09 10:30N 30°13' W 093°16'0 0.0
2017-Oct-09 10:00N 30°13' W 093°16'0 0.0
2017-Oct-09 09:30N 30°13' W 093°16'0 0.0
2017-Oct-09 09:00N 30°13' W 093°16'0 0.0
2017-Oct-09 08:30N 30°13' W 093°16'0 0.0
2017-Oct-09 08:00N 30°13' W 093°16'0 0.0
2017-Oct-09 07:30N 30°13' W 093°16'0 0.0
2017-Oct-09 07:00N 30°13' W 093°16'0 0.0
2017-Oct-09 06:30N 30°13' W 093°16'0 0.0
2017-Oct-09 06:00N 30°13' W 093°16'0 0.0
2017-Oct-09 05:30N 30°13' W 093°16'0 0.0
2017-Oct-09 05:00N 30°13' W 093°16'0 0.0
2017-Oct-09 04:30N 30°13' W 093°16'0 0.0
2017-Oct-09 04:00N 30°13' W 093°16'0 0.0
2017-Oct-09 03:30N 30°13' W 093°16'0 0.0
2017-Oct-09 03:00N 30°13' W 093°16'0 0.0
2017-Oct-09 02:30N 30°13' W 093°16'0 0.0
2017-Oct-09 02:00N 30°13' W 093°16'0 0.0
2017-Oct-09 01:30N 30°13' W 093°16'0 0.0
2017-Oct-09 01:00N 30°13' W 093°16'0 0.0
2017-Oct-09 00:30N 30°13' W 093°16'0 0.0
2017-Oct-09 00:00N 30°13' W 093°16'0 0.0
2017-Oct-08 23:30N 30°13' W 093°16'0 0.0
2017-Oct-08 23:00N 30°13' W 093°16'0 0.0
2017-Oct-08 22:30N 30°13' W 093°16'0 0.0
2017-Oct-08 22:00N 30°13' W 093°16'0 0.0
2017-Oct-08 21:30N 30°13' W 093°16'0 0.0
2017-Oct-08 21:00N 30°13' W 093°16'0 0.0
2017-Oct-08 20:30N 30°13' W 093°16'0 0.0
2017-Oct-08 20:00N 30°13' W 093°16'0 0.0
2017-Oct-08 19:30N 30°13' W 093°16'0 0.0
2017-Oct-08 19:00N 30°13' W 093°16'0 0.0
2017-Oct-08 18:30N 30°13' W 093°16'0 0.0
2017-Oct-08 18:00N 30°13' W 093°16'0 0.0
2017-Oct-08 17:30N 30°13' W 093°16'0 0.0
2017-Oct-08 17:00N 30°13' W 093°16'0 0.0
2017-Oct-08 16:30N 30°13' W 093°16'0 0.0
2017-Oct-08 16:00N 30°13' W 093°16'0 0.0
2017-Oct-08 15:30N 30°13' W 093°16'0 0.0
2017-Oct-08 15:00N 30°13' W 093°16'0 0.0
2017-Oct-08 14:30N 30°13' W 093°16'0 0.0
2017-Oct-08 14:00N 30°13' W 093°16'0 0.0
2017-Oct-08 13:30N 30°13' W 093°16'0 0.0
2017-Oct-08 13:00N 30°13' W 093°16'0 0.0
2017-Oct-08 12:30N 30°13' W 093°16'0 0.0
2017-Oct-08 12:00N 30°13' W 093°16'0 0.0
2017-Oct-08 11:30N 30°13' W 093°16'0 0.0
2017-Oct-08 11:00N 30°13' W 093°16'0 0.1
2017-Oct-08 10:30N 30°13' W 093°16'0 0.4
2017-Oct-08 10:00N 30°14' W 093°16'0 0.0
2017-Oct-08 09:30N 30°14' W 093°16'0 0.0
2017-Oct-08 09:00N 30°14' W 093°16'0 0.0
2017-Oct-08 08:30N 30°14' W 093°16'0 0.0
2017-Oct-08 08:00N 30°14' W 093°16'0 0.0
2017-Oct-08 07:30N 30°14' W 093°16'0 0.0
2017-Oct-08 07:00N 30°14' W 093°16'0 0.0
2017-Oct-08 06:30N 30°14' W 093°16'0 0.3
2017-Oct-08 06:00N 30°13' W 093°16'0 0.8
2017-Oct-08 05:30N 30°13' W 093°16'1 2.0
2017-Oct-08 05:00N 30°12' W 093°17'3 6.0
2017-Oct-08 04:30N 30°10' W 093°19'3 5.6
2017-Oct-08 04:00N 30°07' W 093°20'3 5.2
2017-Oct-08 03:30N 30°05' W 093°20'2 3.9
2017-Oct-08 03:00N 30°04' W 093°22'2 4.7
2017-Oct-08 02:30N 30°04' W 093°25'3 5.2
2017-Oct-08 02:00N 30°04' W 093°28'3 5.1
2017-Oct-08 01:30N 30°04' W 093°31'3 5.2
2017-Oct-08 01:00N 30°04' W 093°34'3 5.3
2017-Oct-08 00:30N 30°04' W 093°37'3 5.6
2017-Oct-07 23:59N 30°04' W 093°40'71 4.9
2017-Oct-07 09:30N 29°31' W 094°53'4 7.6
2017-Oct-07 09:00N 29°34' W 094°55'4 7.7
2017-Oct-07 08:30N 29°37' W 094°57'4 7.8
2017-Oct-07 08:00N 29°41' W 094°59'3 7.0
2017-Oct-07 07:30N 29°43' W 095°01'4 0.2
2017-Oct-06 13:29N 29°45' W 095°06'0 0.0
2017-Oct-06 11:11N 29°45' W 095°06'0 0.0
2017-Oct-06 10:58N 29°45' W 095°06'0 0.0
2017-Oct-06 10:30N 29°45' W 095°06'0 0.0
2017-Oct-06 10:00N 29°45' W 095°06'0 0.0
2017-Oct-06 09:30N 29°45' W 095°06'  

Dump ship's entire track history